Terminal Aerodrome Forecast
Issued by NWS Amarillo, TX

Home | Current Version | Previous Version | Text Only | Print | Product List | Glossary On
Versions: 1 2 3 4 5 6 7 8 9 10 11 12 13
000
FTUS44 KAMA 261600 AAA
TAFDHT
TAF AMD
KDHT 261635Z 2617/2712 02013KT P6SM OVC010
      TEMPO 2617/2621 1SM -SN BR
     FM270000 36009KT P6SM OVC007=

USA.gov is the U.S. government's official web portal to all federal, state and local government web resources and services.